M I D A S
Marine Information and Data Acquisition System
Tripno 1904 of the Zeeleeuw from 2010-06-22 06:24:34 to 2010-06-22 16:58:46
Back to CruiseResearch ActivitiesStationsMapUnderway DataData graphs

EquipmentUnitsComment
TimeDGPSUTC
LatitudeDGPSDM.mWGS84
LongitudeDGPSDM.mWGS84
TemperatureSBE03/SBE38deg celciusITS90
ConductivitySBE21S/mITS90
SalinitySBE21 Practical Salinity Units
ChlorophylAChelsea fluorimeterg/lCalibrated in Aceton
Missing or incorrect values are displayed as -999
Sea surface data collected by the RV Zeeleeuw from 2010-06-22 06:13:07 to 2010-06-22 17:06:19
Time Latitude Longitude Temperature Conductivity Salinity ChlorophylA
2010-06-22 06:14:15 51°13.673 2°55.906 19.1996 0.068075 0.372306 -1.000568
2010-06-22 06:15:15 51°13.685 2°55.815 19.2001 0.068075 0.372342 -1.000568
2010-06-22 06:16:15 51°13.686 2°55.738 19.2384 0.068075 0.372366 -0.965744
2010-06-22 06:17:12 51°13.715 2°55.758 19.2449 0.068075 0.37242 -1.000568
2010-06-22 06:18:12 51°13.771 2°55.689 19.0972 0.068075 0.372402 -1.000568
2010-06-22 06:19:12 51°13.861 2°55.611 19.1708 0.068075 0.372463 -0.965744
2010-06-22 06:20:12 51°13.947 2°55.548 19.2044 0.068075 0.372493 -1.000568
2010-06-22 06:21:12 51°14.026 2°55.491 19.2184 0.068075 0.372523 -1.000568
2010-06-22 06:22:12 51°14.102 2°55.436 19.2192 0.068075 0.372541 -1.035392
2010-06-22 06:23:14 51°14.189 2°55.367 19.2108 0.068075 0.372565 -1.000568
2010-06-22 06:24:12 51°14.302 2°55.245 19.1829 0.068075 0.372583 -1.000568
2010-06-22 06:25:12 51°14.449 2°55.089 19.1617 0.068075 0.372601 -1.000568
2010-06-22 06:26:12 51°14.593 2°54.897 19.1819 0.068075 0.372649 -1.000568
2010-06-22 06:27:12 51°14.625 2°54.599 19.0773 0.068075 0.372637 -1.035392
2010-06-22 06:28:12 51°14.568 2°54.286 19.1034 0.068075 0.372649 -1.000568
2010-06-22 06:29:12 51°14.454 2°54.008 19.1027 0.068075 0.372667 -1.000568
2010-06-22 06:30:12 51°14.325 2°53.744 19.1272 0.068075 0.372703 -0.965744
2010-06-22 06:31:12 51°14.2 2°53.473 19.1366 0.068075 0.372715 -0.965744
2010-06-22 06:32:12 51°14.075 2°53.202 19.1409 0.068075 0.372721 -1.000568
2010-06-22 06:33:12 51°13.953 2°52.931 19.1692 0.068075 0.372757 -1.000568
2010-06-22 06:34:12 51°13.831 2°52.661 19.1834 0.068075 0.372763 -1.000568
2010-06-22 06:35:12 51°13.709 2°52.39 19.2263 0.068075 0.372787 -0.965744
2010-06-22 06:36:12 51°13.589 2°52.119 18.9385 0.068075 0.372811 -1.000568
2010-06-22 06:37:12 51°13.475 2°51.865 19.0179 0.068075 0.372835 -1.000568
2010-06-22 06:38:12 51°13.384 2°51.659 19.0576 0.068075 0.372859 -1.000568
2010-06-22 06:39:12 51°13.361 2°51.476 19.0692 0.068075 0.372914 -1.000568
2010-06-22 06:40:12 51°13.435 2°51.404 19.0806 0.068075 0.372944 -1.000568
2010-06-22 06:41:12 51°13.511 2°51.395 19.2052 0.068075 0.372956 -1.035392
2010-06-22 06:42:12 51°13.534 2°51.42 19.1978 0.068075 0.372986 -1.000568
2010-06-22 06:43:12 51°13.543 2°51.442 19.2151 0.067971 0.372403 -1.000568
2010-06-22 06:44:12 51°13.551 2°51.465 19.2365 0.067971 0.372434 -1.000568
2010-06-22 06:45:12 51°13.558 2°51.488 19.261 0.067971 0.37244 -0.965744
2010-06-22 06:46:12 51°13.566 2°51.512 19.288 0.067971 0.372464 -1.000568
2010-06-22 06:47:12 51°13.573 2°51.536 19.3121 0.067971 0.372476 -1.000568
2010-06-22 06:48:12 51°13.58 2°51.563 19.3376 0.067971 0.372494 -1.000568
2010-06-22 06:49:12 51°13.591 2°51.61 19.3586 0.067971 0.372518 -1.000568
2010-06-22 06:50:12 51°13.599 2°51.65 19.3893 0.067971 0.37253 -1.000568
2010-06-22 06:51:12 51°13.606 2°51.687 19.415 0.067971 0.372542 -1.000568
2010-06-22 06:52:12 51°13.613 2°51.723 19.4461 0.067971 0.372566 -1.035392
2010-06-22 06:53:12 51°13.621 2°51.759 19.4763 0.067971 0.372566 -0.965744
2010-06-22 06:54:12 51°13.628 2°51.793 19.5002 0.067971 0.372584 -1.000568
2010-06-22 06:55:12 51°13.632 2°51.842 19.529 0.067971 0.37259 -1.000568
2010-06-22 06:56:12 51°13.601 2°51.893 19.3491 0.067971 0.372638 -1.035392
2010-06-22 06:57:12 51°13.55 2°51.812 19.3394 0.067971 0.372626 -1.000568
2010-06-22 06:58:12 51°13.467 2°51.603 19.3923 0.067971 0.372656 -1.000568
2010-06-22 06:59:12 51°13.381 2°51.324 19.4287 0.067971 0.372656 -1.035392
2010-06-22 07:00:12 51°13.3 2°51.031 19.4187 0.067971 0.372674 -1.000568
2010-06-22 07:01:12 51°13.206 2°50.75 19.4609 0.067971 0.372674 -0.965744
2010-06-22 07:02:12 51°13.107 2°50.473 19.4716 0.067971 0.372699 -1.000568
2010-06-22 07:03:12 51°13.008 2°50.195 19.5002 0.067971 0.372723 -0.965744
2010-06-22 07:04:12 51°12.909 2°49.919 19.5196 0.067971 0.372747 -1.000568
2010-06-22 07:05:12 51°12.811 2°49.641 19.5437 0.067971 0.372753 -1.000568
2010-06-22 07:06:12 51°12.712 2°49.364 19.5573 0.067971 0.372795 -1.000568
2010-06-22 07:07:12 51°12.614 2°49.085 19.5713 0.067971 0.372831 -1.000568
2010-06-22 07:08:12 51°12.515 2°48.808 19.5853 0.067971 0.372849 -0.965744
2010-06-22 07:09:12 51°12.415 2°48.533 19.6087 0.067971 0.372843 -1.000568
2010-06-22 07:10:12 51°12.317 2°48.256 19.6241 0.067971 0.372867 -1.000568
2010-06-22 07:11:12 51°12.219 2°47.976 19.6414 0.067971 0.372904 -1.035392
2010-06-22 07:12:12 51°12.119 2°47.696 19.6574 0.067971 0.372928 -1.000568
2010-06-22 07:13:12 51°12.021 2°47.416 19.6756 0.067971 0.37297 -1.000568
2010-06-22 07:14:12 51°11.931 2°47.13 19.6915 0.067971 0.373006 -1.035392
2010-06-22 07:15:12 51°11.847 2°46.84 19.7072 0.067971 0.372994 -1.000568
2010-06-22 07:16:12 51°11.782 2°46.537 19.7259 0.067971 0.373018 -1.000568
2010-06-22 07:17:12 51°11.72 2°46.233 19.7427 0.067971 0.373048 -1.000568
2010-06-22 07:18:12 51°11.655 2°45.93 19.7556 0.067971 0.373067 -1.000568
2010-06-22 07:19:12 51°11.591 2°45.626 19.7755 0.067867 0.372489 -1.000568
2010-06-22 07:20:12 51°11.526 2°45.323 19.7916 0.067971 0.373115 -1.000568
2010-06-22 07:21:12 51°11.462 2°45.019 15.7628 0.317038 1.866082 -1.035392
2010-06-22 07:22:12 51°11.396 2°44.717 15.3825 3.848362 30.189008 2.377365
2010-06-22 07:23:12 51°11.331 2°44.418 15.4 3.835921 30.372747 2.377365
2010-06-22 07:24:12 51°11.265 2°44.122 15.3921 3.840983 30.426018 2.342541
2010-06-22 07:25:12 51°11.202 2°43.828 15.3894 3.831597 30.3687 2.377365
2010-06-22 07:26:12 51°11.136 2°43.536 15.4075 3.827272 30.335191 2.307717
2010-06-22 07:27:12 51°11.088 2°43.238 15.3719 3.839507 30.439617 2.412189
2010-06-22 07:28:12 51°11.06 2°42.93 15.3499 3.834551 30.433534 2.481837
2010-06-22 07:29:12 51°11.069 2°42.624 15.3633 3.834551 30.433534 2.447013
2010-06-22 07:30:12 51°11.079 2°42.392 15.3602 3.833285 30.426996 2.481837
2010-06-22 07:31:12 51°11.083 2°42.219 15.3595 3.834023 30.418446 2.307717
2010-06-22 07:32:12 51°11.11 2°42.113 15.3668 3.83666 30.44578 2.133597
2010-06-22 07:33:12 51°11.131 2°42.068 15.4324 3.838347 30.442705 1.855004
2010-06-22 07:34:12 51°11.148 2°42.085 15.4304 3.84689 30.483293 1.541588
2010-06-22 07:35:12 51°11.164 2°42.113 15.4568 3.849527 30.503064 1.47194
2010-06-22 07:36:12 51°11.179 2°42.144 15.446 3.852269 30.514484 1.506764
2010-06-22 07:37:12 51°11.193 2°42.177 15.4516 3.853113 30.522501 1.402292
2010-06-22 07:38:12 51°11.211 2°42.215 15.4219 3.853429 30.52529 1.437116
2010-06-22 07:39:12 51°11.236 2°42.31 15.4396 3.853851 30.529589 1.47194
2010-06-22 07:40:12 51°11.199 2°42.409 15.4184 3.850371 30.513403 1.715708
2010-06-22 07:41:12 51°11.102 2°42.522 15.4124 3.843621 30.459678 1.611236
2010-06-22 07:42:12 51°10.958 2°42.606 15.3647 3.842777 30.466141 2.168421
2010-06-22 07:43:12 51°10.794 2°42.676 15.3405 3.833496 30.415529 2.412189
2010-06-22 07:44:12 51°10.627 2°42.747 15.4379 3.828117 30.384837 2.481837
2010-06-22 07:45:12 51°10.46 2°42.823 15.428 3.83782 30.417211 2.203245
2010-06-22 07:46:12 51°10.293 2°42.902 15.3636 3.835605 30.406934 2.725606
2010-06-22 07:47:12 51°10.179 2°42.908 15.4308 3.828116 30.362851 2.864902
2010-06-22 07:48:12 51°10.133 2°42.78 15.3918 3.829065 30.331958 2.516661
2010-06-22 07:49:12 51°10.148 2°42.696 15.4179 3.826218 30.323008 2.551485
2010-06-22 07:50:12 51°10.163 2°42.711 15.3713 3.828854 30.338174 2.412189
2010-06-22 07:51:12 51°10.174 2°42.741 15.3454 3.826534 30.350048 2.899726
2010-06-22 07:52:12 51°10.183 2°42.771 15.334 3.823792 30.346658 3.352439
2010-06-22 07:53:12 51°10.192 2°42.802 15.3285 3.822316 30.339982 3.352439
2010-06-22 07:54:12 51°10.202 2°42.834 15.324 3.821472 30.33658 3.317614
2010-06-22 07:55:12 51°10.221 2°42.861 15.3365 3.822105 30.345061 3.317614
2010-06-22 07:56:12 51°10.298 2°42.857 15.3926 3.82548 30.333811 2.864902
2010-06-22 07:57:12 51°10.438 2°42.79 15.4838 3.828011 30.345743 2.795254
2010-06-22 07:58:12 51°10.539 2°42.583 15.4818 3.838451 30.352956 1.82018
2010-06-22 07:59:12 51°10.537 2°42.298 15.4301 3.838241 30.370687 2.168421
2010-06-22 08:00:12 51°10.482 2°42.007 15.3839 3.834128 30.373688 2.412189
2010-06-22 08:01:12 51°10.41 2°41.717 15.4166 3.831913 30.38305 2.342541
2010-06-22 08:02:12 51°10.341 2°41.428 15.3836 3.834023 30.388356 2.238069
2010-06-22 08:03:12 51°10.273 2°41.136 15.4103 3.833811 30.378407 2.238069
2010-06-22 08:04:12 51°10.204 2°40.844 15.3976 3.834339 30.3871 2.168421
2010-06-22 08:05:12 51°10.137 2°40.553 15.4547 3.833073 30.379409 2.098773
2010-06-22 08:06:12 51°10.068 2°40.261 15.4782 3.837924 30.370784 1.750532
2010-06-22 08:07:12 51°9.999 2°39.967 15.4322 3.842882 30.421938 1.785356
2010-06-22 08:08:12 51°9.927 2°39.671 15.415 3.842144 30.443186 1.715708
2010-06-22 08:09:12 51°9.856 2°39.374 15.4464 3.842777 30.439507 1.576412
2010-06-22 08:10:12 51°9.787 2°39.076 15.4032 3.842776 30.431989 1.47194
2010-06-22 08:11:12 51°9.716 2°38.78 15.4125 3.839718 30.430479 1.47194
2010-06-22 08:12:12 51°9.646 2°38.484 15.3961 3.838769 30.426159 1.47194
2010-06-22 08:13:12 51°9.576 2°38.189 15.4015 3.836449 30.417269 1.367467
2010-06-22 08:14:12 51°9.505 2°37.894 15.403 3.836976 30.414398 1.228171
2010-06-22 08:15:12 51°9.458 2°37.669 15.4184 3.837081 30.408387 1.193347
2010-06-22 08:16:12 51°9.458 2°37.548 15.5171 3.837398 30.404817 1.123699
2010-06-22 08:17:12 51°9.45 2°37.519 15.5605 3.846362 30.400072 0.462042
2010-06-22 08:18:12 51°9.459 2°37.533 15.5229 3.849525 30.407154 0.740634
2010-06-22 08:19:12 51°9.471 2°37.554 15.4533 3.84594 30.417691 1.019227
2010-06-22 08:20:12 51°9.484 2°37.58 15.5057 3.841405 30.41182 1.088875
2010-06-22 08:21:12 51°9.495 2°37.61 15.4835 3.845202 30.407734 1.054051
2010-06-22 08:22:12 51°9.504 2°37.642 15.5008 3.843409 30.409837 1.088875
2010-06-22 08:23:12 51°9.512 2°37.675 15.4778 3.844885 30.409564 1.054051
2010-06-22 08:24:12 51°9.519 2°37.71 15.4615 3.842987 30.411895 1.088875
2010-06-22 08:25:12 51°9.525 2°37.746 15.4198 3.841194 30.409385 1.158523
2010-06-22 08:26:12 51°9.533 2°37.78 15.405 3.838347 30.413763 1.297819
2010-06-22 08:27:12 51°9.538 2°37.763 15.4233 3.837081 30.409544 1.262995
2010-06-22 08:28:12 51°9.504 2°37.681 15.4535 3.83803 30.415022 0.949579
2010-06-22 08:29:12 51°9.473 2°37.552 15.4716 3.841194 30.413428 0.949579
2010-06-22 08:30:12 51°9.448 2°37.481 15.3903 3.840245 30.400447 0.879931
2010-06-22 08:31:12 51°9.441 2°37.466 15.3781 3.834972 30.400196 1.088875
2010-06-22 08:32:12 51°9.433 2°37.469 15.4723 3.836132 30.398284 0.740634
2010-06-22 08:33:12 51°9.425 2°37.474 15.4333 3.84151 30.406397 0.879931
2010-06-22 08:34:12 51°9.42 2°37.478 15.7344 3.836659 30.406402 1.088875
2010-06-22 08:35:12 51°9.418 2°37.48 15.7872 3.859333 30.362339 0.601338
2010-06-22 08:36:12 51°9.42 2°37.482 15.6988 3.865028 30.37958 0.636162
2010-06-22 08:37:12 51°9.424 2°37.484 15.6711 3.859438 30.386163 0.740634
2010-06-22 08:38:12 51°9.429 2°37.487 15.6747 3.855115 30.394714 0.845107
2010-06-22 08:39:12 51°9.438 2°37.494 15.6611 3.854904 30.387124 0.879931
2010-06-22 08:40:12 51°9.448 2°37.507 15.8512 3.858384 30.371197 0.775459
2010-06-22 08:41:33 51°9.462 2°37.529 15.9229 3.877156 30.368016 0.496866
2010-06-22 08:43:07 51°9.473 2°37.552 15.4666 3.861337 30.422877 1.088875
2010-06-22 08:44:07 51°9.474 2°37.564 15.511 3.844147 30.403067 1.193347
2010-06-22 08:45:07 51°9.468 2°37.57 15.5243 3.84615 30.382671 1.088875
2010-06-22 08:46:07 51°9.46 2°37.571 15.491 3.845412 30.391148 1.088875
2010-06-22 08:47:07 51°9.45 2°37.569 15.4699 3.843514 30.396346 1.193347
2010-06-22 08:48:07 51°9.44 2°37.569 15.4328 3.840667 30.395504 1.262995
2010-06-22 08:49:07 51°9.433 2°37.57 15.4319 3.838452 30.395623 1.297819
2010-06-22 08:50:07 51°9.429 2°37.574 15.4442 3.838557 30.391933 1.228171
2010-06-22 08:51:07 51°9.427 2°37.583 15.4658 3.839296 30.394973 1.228171
2010-06-22 08:52:07 51°9.426 2°37.596 15.4746 3.840878 30.395631 1.297819
2010-06-22 08:53:07 51°9.428 2°37.611 15.4834 3.841405 30.393927 1.193347
2010-06-22 08:54:07 51°9.431 2°37.627 15.5013 3.842248 30.39328 1.193347
2010-06-22 08:55:07 51°9.435 2°37.646 15.4666 3.843303 30.39276 1.262995
2010-06-22 08:56:07 51°9.44 2°37.666 15.468 3.840983 30.397713 1.332643
2010-06-22 08:57:07 51°9.445 2°37.679 15.4848 3.840983 30.393675 1.332643
2010-06-22 08:58:07 51°9.464 2°37.641 15.4864 3.842248 30.393857 1.402292
2010-06-22 08:59:07 51°9.474 2°37.562 15.5065 3.842249 30.395587 1.158523
2010-06-22 09:00:07 51°9.467 2°37.509 15.622 3.84383 30.389332 0.879931
2010-06-22 09:01:07 51°9.468 2°37.505 15.534 3.849525 30.384716 1.054051
2010-06-22 09:02:07 51°9.471 2°37.505 15.526 3.846572 30.38753 1.123699
2010-06-22 09:03:07 51°9.469 2°37.51 15.506 3.844252 30.382674 1.228171
2010-06-22 09:04:07 51°9.461 2°37.526 15.5706 3.844568 30.381426 1.262995
2010-06-22 09:05:07 51°9.45 2°37.553 15.7902 3.848154 30.379573 1.228171
2010-06-22 09:06:07 51°9.437 2°37.574 15.507 3.858384 30.385519 1.123699
2010-06-22 09:07:07 51°9.428 2°37.589 15.5071 3.844041 30.392916 1.332643
2010-06-22 09:08:07 51°9.423 2°37.603 15.5111 3.842987 30.38479 1.332643
2010-06-22 09:09:07 51°9.418 2°37.615 15.5005 3.843408 30.387349 1.297819
2010-06-22 09:10:07 51°9.417 2°37.602 15.5298 3.842881 30.386743 1.332643
2010-06-22 09:11:07 51°9.447 2°37.569 15.5006 3.844252 30.383826 1.262995
2010-06-22 09:12:07 51°9.483 2°37.527 15.4697 3.842037 30.38393 1.367467
2010-06-22 09:13:07 51°9.484 2°37.49 15.4379 3.839717 30.379649 1.054051
2010-06-22 09:14:07 51°9.463 2°37.486 15.4516 3.837397 30.386332 1.332643
2010-06-22 09:15:07 51°9.446 2°37.512 15.5171 3.837608 30.378956 1.158523
2010-06-22 09:16:07 51°9.444 2°37.541 15.4637 3.842248 30.383481 1.297819
2010-06-22 09:17:07 51°9.442 2°37.571 15.5164 3.839295 30.378818 1.297819
2010-06-22 09:18:07 51°9.44 2°37.6 15.5317 3.843303 30.369148 1.297819
2010-06-22 09:19:07 51°9.437 2°37.628 15.4637 3.843408 30.376982 1.297819
2010-06-22 09:20:07 51°9.435 2°37.656 15.4649 3.839295 30.373054 1.332643
2010-06-22 09:21:07 51°9.435 2°37.686 15.5035 3.839084 30.374655 1.367467
2010-06-22 09:22:07 51°9.436 2°37.718 15.4648 3.841299 30.37225 1.47194
2010-06-22 09:23:07 51°9.438 2°37.752 15.4883 3.839295 30.375359 1.541588
2010-06-22 09:24:07 51°9.441 2°37.786 15.5508 3.839717 30.369275 1.541588
2010-06-22 09:25:07 51°9.445 2°37.821 15.5927 3.845201 30.361678 1.367467
2010-06-22 09:26:07 51°9.45 2°37.857 15.6258 3.848576 30.361446 1.367467
2010-06-22 09:27:07 51°9.455 2°37.891 15.6586 3.850896 30.362295 1.332643
2010-06-22 09:28:07 51°9.46 2°37.926 15.7145 3.854798 30.355815 1.158523
2010-06-22 09:29:07 51°9.466 2°37.96 15.6971 3.859543 30.357322 1.123699
2010-06-22 09:30:07 51°9.471 2°37.993 15.765 3.858805 30.365732 1.158523
2010-06-22 09:31:07 51°9.477 2°38.025 15.7375 3.863762 30.364511 1.088875
2010-06-22 09:32:07 51°9.483 2°38.056 15.7705 3.863129 30.366976 1.123699
2010-06-22 09:33:07 51°9.488 2°38.087 15.6992 3.863973 30.367498 1.158523
2010-06-22 09:34:07 51°9.493 2°38.117 15.6169 3.8587 30.375113 1.332643
2010-06-22 09:35:07 51°9.498 2°38.145 15.6895 3.851529 30.373012 1.437116
2010-06-22 09:36:07 51°9.503 2°38.174 15.7653 3.858067 30.358123 1.262995
2010-06-22 09:37:06 51°9.508 2°38.202 15.7905 3.864079 30.368421 1.123699
2010-06-22 09:38:07 51°9.513 2°38.231 15.8297 3.867137 30.366036 0.879931
2010-06-22 09:39:07 51°9.518 2°38.258 15.8307 3.868508 30.366603 0.845107
2010-06-22 09:40:07 51°9.523 2°38.287 15.8051 3.869563 30.376958 0.984403
2010-06-22 09:41:07 51°9.528 2°38.313 15.745 3.867032 30.374248 1.054051
2010-06-22 09:42:07 51°9.533 2°38.34 15.7459 3.862286 30.377319 1.193347
2010-06-22 09:43:07 51°9.538 2°38.367 15.7027 3.862919 30.375993 1.262995
2010-06-22 09:44:18 51°9.543 2°38.398 15.7401 3.858067 30.384465 1.437116
2010-06-22 09:45:17 51°9.548 2°38.424 15.8011 3.86218 30.366674 1.193347
2010-06-22 09:46:18 51°9.553 2°38.45 15.9076 3.867664 30.361514 1.019227
2010-06-22 09:47:17 51°9.558 2°38.476 15.8768 3.876312 30.373747 0.879931
2010-06-22 09:48:18 51°9.563 2°38.502 15.7982 3.873254 30.370985 0.949579
2010-06-22 09:49:17 51°9.567 2°38.526 15.8289 3.869036 30.381483 1.297819
2010-06-22 09:50:18 51°9.572 2°38.552 15.9693 3.871883 30.369275 0.984403
2010-06-22 09:51:17 51°9.577 2°38.576 15.9071 3.880742 30.378222 0.740634
2010-06-22 09:52:18 51°9.582 2°38.6 15.8822 3.877894 30.375589 0.810283
2010-06-22 09:53:17 51°9.587 2°38.624 15.8882 3.875574 30.377558 0.879931
2010-06-22 09:54:18 51°9.592 2°38.647 15.9051 3.876207 30.376244 0.810283
2010-06-22 09:55:18 51°9.59 2°38.676 15.7907 3.87568 30.384744 1.123699
2010-06-22 09:56:18 51°9.55 2°38.658 15.6773 3.868825 30.388207 1.47194
2010-06-22 09:57:17 51°9.586 2°38.51 15.6162 3.858489 30.374411 1.228171
2010-06-22 09:58:18 51°9.705 2°38.271 15.4496 3.8529 30.393084 1.715708
2010-06-22 09:59:17 51°9.826 2°37.997 15.5091 3.83919 30.378467 1.402292
2010-06-22 10:00:17 51°9.944 2°37.718 15.5227 3.848787 30.417946 0.879931
2010-06-22 10:01:17 51°10.058 2°37.432 15.4172 3.844885 30.415333 0.879931
2010-06-22 10:02:17 51°10.172 2°37.143 15.3856 3.839085 30.405242 0.845107
2010-06-22 10:03:17 51°10.29 2°36.855 15.3619 3.837714 30.429013 0.879931
2010-06-22 10:04:18 51°10.409 2°36.562 15.2995 3.844043 30.493548 0.845107
2010-06-22 10:05:17 51°10.591 2°36.402 15.3396 3.844571 30.527259 0.949579
2010-06-22 10:06:18 51°10.824 2°36.465 15.3843 3.851005 30.568382 0.949579
2010-06-22 10:07:17 51°11.045 2°36.588 15.3741 3.869568 30.699083 1.506764
2010-06-22 10:08:18 51°11.269 2°36.717 15.334 3.88423 30.845593 1.750532
2010-06-22 10:09:17 51°11.486 2°36.839 15.3149 3.887711 30.899895 1.855004
2010-06-22 10:10:18 51°11.709 2°36.966 15.3386 3.889293 30.920376 1.785356
2010-06-22 10:11:18 51°11.928 2°37.091 15.3077 3.892985 30.953641 1.64606
2010-06-22 10:12:18 51°12.146 2°37.217 15.3239 3.892669 30.963824 1.64606
2010-06-22 10:13:18 51°12.364 2°37.342 15.3222 3.889821 30.935066 1.785356
2010-06-22 10:14:18 51°12.586 2°37.458 15.3058 3.888766 30.92278 1.680884
2010-06-22 10:15:17 51°12.807 2°37.555 15.2734 3.891509 30.96595 1.47194
2010-06-22 10:16:18 51°13.038 2°37.627 15.2845 3.895201 31.018186 1.680884
2010-06-22 10:17:17 51°13.253 2°37.596 15.3136 3.895201 31.009306 1.680884
2010-06-22 10:18:17 51°13.425 2°37.385 15.3091 3.896678 31.005826 1.47194
2010-06-22 10:19:18 51°13.592 2°37.146 15.2978 3.895623 30.994117 1.9943
2010-06-22 10:20:17 51°13.758 2°36.915 15.2807 3.895728 31.005696 1.680884
2010-06-22 10:21:18 51°13.931 2°36.684 15.2891 3.895412 31.007033 1.262995
2010-06-22 10:22:17 51°14.094 2°36.457 15.2251 3.908386 31.12204 1.054051
2010-06-22 10:23:18 51°14.263 2°36.219 15.2289 3.906277 31.154474 1.158523
2010-06-22 10:24:17 51°14.438 2°36.003 15.22 3.906383 31.156006 1.054051
2010-06-22 10:25:18 51°14.656 2°35.875 15.1973 3.90575 31.152768 1.123699
2010-06-22 10:26:18 51°14.892 2°35.871 15.2052 3.903113 31.147815 1.332643
2010-06-22 10:27:17 51°15.124 2°35.932 15.2121 3.90343 31.146454 1.506764
2010-06-22 10:28:18 51°15.363 2°36.024 15.1582 3.90248 31.143383 1.228171
2010-06-22 10:29:17 51°15.586 2°36.146 15.1071 3.899527 31.148139 1.297819
2010-06-22 10:30:18 51°15.811 2°36.296 15.1077 3.897313 31.166659 1.193347
2010-06-22 10:31:17 51°16.031 2°36.439 15.1221 3.897524 31.163156 1.437116
2010-06-22 10:32:18 51°16.229 2°36.571 15.1402 3.900266 31.173819 0.984403
2010-06-22 10:33:18 51°16.39 2°36.678 15.1983 3.905223 31.187451 0.879931
2010-06-22 10:34:17 51°16.524 2°36.769 15.1967 3.908704 31.207649 0.775459
2010-06-22 10:35:17 51°16.618 2°36.832 15.2671 3.907649 31.198271 0.845107
2010-06-22 10:36:18 51°16.65 2°36.854 15.317 3.91461 31.189133 0.70581
2010-06-22 10:37:18 51°16.664 2°36.879 15.1729 3.916403 31.213984 1.541588
2010-06-22 10:38:21 51°16.679 2°36.903 15.2395 3.907544 31.209881 2.238069
2010-06-22 10:39:19 51°16.693 2°36.924 15.1816 3.912712 31.191942 1.889828
2010-06-22 10:40:17 51°16.707 2°36.944 15.1374 3.907755 31.204586 2.342541
2010-06-22 10:41:18 51°16.721 2°36.964 15.1127 3.904169 31.204368 2.412189
2010-06-22 10:42:17 51°16.741 2°36.971 15.1423 3.90227 31.203622 2.447013
2010-06-22 10:43:18 51°16.808 2°36.885 15.2058 3.905856 31.199054 2.133597
2010-06-22 10:44:17 51°16.93 2°36.692 15.3029 3.909231 31.202781 0.810283
2010-06-22 10:45:49 51°17.136 2°36.298 15.1463 3.930011 31.329405 0.427218
2010-06-22 10:47:07 51°17.308 2°35.929 14.9403 3.927904 31.479078 0.427218
2010-06-22 10:48:44 51°17.521 2°35.486 14.8561 3.928329 31.672859 0.566514
2010-06-22 10:49:44 51°17.656 2°35.216 14.9501 3.927063 31.627825 0.53169
2010-06-22 10:50:44 51°17.794 2°34.954 14.9635 3.927589 31.562407 0.496866
2010-06-22 10:51:44 51°17.931 2°34.697 15.0207 3.920627 31.491596 0.35757
2010-06-22 10:52:44 51°18.069 2°34.435 15.0099 3.928432 31.492259 0.287922
2010-06-22 10:53:44 51°18.204 2°34.169 14.8848 3.937082 31.600496 0.253098
2010-06-22 10:54:44 51°18.339 2°33.899 14.8024 3.932864 31.656628 0.218274
2010-06-22 10:55:44 51°18.475 2°33.626 14.792 3.927485 31.679996 0.462042
2010-06-22 10:56:44 51°18.611 2°33.349 14.7821 3.925481 31.677938 0.496866
2010-06-22 10:57:44 51°18.75 2°33.071 14.8078 3.924743 31.674983 0.636162
2010-06-22 10:58:44 51°18.888 2°32.792 14.7889 3.926852 31.675536 0.601338
2010-06-22 10:59:44 51°19.013 2°32.499 14.8743 3.927591 31.693219 0.601338
2010-06-22 11:00:44 51°19.124 2°32.192 14.9207 3.938877 31.711162 0.427218
2010-06-22 11:01:44 51°19.235 2°31.884 14.773 3.949531 31.814118 0.35757
2010-06-22 11:02:44 51°19.352 2°31.582 14.7012 3.949638 31.910658 0.322746
2010-06-22 11:03:44 51°19.466 2°31.28 14.6204 3.948057 31.957148 0.287922
2010-06-22 11:04:44 51°19.582 2°30.983 14.4961 3.953122 32.081396 0.18345
2010-06-22 11:05:44 51°19.701 2°30.69 14.4491 3.949853 32.139538 0.113802
2010-06-22 11:06:44 51°19.819 2°30.402 14.4101 3.951963 32.192032 0.009329
2010-06-22 11:07:44 51°19.923 2°30.171 14.4289 3.951225 32.211184 0.009329
2010-06-22 11:08:44 51°19.984 2°30.048 14.4505 3.950381 32.194055 0.009329
2010-06-22 11:09:44 51°20.039 2°29.974 14.4713 3.950697 32.177391 0.009329
2010-06-22 11:10:44 51°20.084 2°29.961 14.6076 3.951752 32.163674 0.044153
2010-06-22 11:11:44 51°20.115 2°29.974 14.7025 3.956497 32.086914 -0.060319
2010-06-22 11:12:44 51°20.14 2°29.994 14.7084 3.96156 32.078346 -0.025495
2010-06-22 11:13:44 51°20.164 2°30.015 14.7028 3.962403 32.079104 0.078977
2010-06-22 11:14:44 51°20.187 2°30.038 14.6837 3.962825 32.087276 0.18345
2010-06-22 11:15:44 51°20.207 2°30.062 14.6844 3.962193 32.093414 0.253098
2010-06-22 11:16:44 51°20.241 2°30.091 14.6935 3.961876 32.094301 0.287922
2010-06-22 11:17:44 51°20.295 2°30.198 14.7379 3.962931 32.074516 0.253098
2010-06-22 11:18:43 51°20.353 2°30.477 14.6179 3.964935 32.099454 -0.095143
2010-06-22 11:19:44 51°20.435 2°30.831 14.4895 3.961772 32.156508 -0.095143
2010-06-22 11:20:43 51°20.512 2°31.183 14.4267 3.95671 32.213691 -0.164791
2010-06-22 11:21:44 51°20.591 2°31.549 14.4165 3.955022 32.232426 -0.129967
2010-06-22 11:22:43 51°20.666 2°31.9 14.4025 3.95439 32.244993 -0.164791
2010-06-22 11:23:44 51°20.742 2°32.259 14.4136 3.953546 32.244275 -0.164791
2010-06-22 11:24:44 51°20.767 2°32.624 14.4345 3.951858 32.217566 -0.095143
2010-06-22 11:25:44 51°20.769 2°32.993 14.4438 3.947533 32.163148 -0.060319
2010-06-22 11:26:44 51°20.781 2°33.365 14.5045 3.945317 32.132337 -0.060319
2010-06-22 11:27:44 51°20.8 2°33.738 14.7269 3.948375 32.094773 -0.025495
2010-06-22 11:28:44 51°20.819 2°34.113 14.7792 3.946263 31.914928 0.044153
2010-06-22 11:29:44 51°20.837 2°34.489 14.794 3.940566 31.824065 0.113802
2010-06-22 11:30:44 51°20.856 2°34.865 14.8257 3.940144 31.809169 0.148626
2010-06-22 11:31:43 51°20.874 2°35.235 14.8688 3.936135 31.741751 0.218274
2010-06-22 11:32:44 51°20.892 2°35.617 14.8643 3.932443 31.697542 0.253098
2010-06-22 11:33:44 51°20.901 2°35.988 14.8543 3.9297 31.652097 0.322746
2010-06-22 11:34:44 51°20.912 2°36.357 14.8036 3.926641 31.659539 0.53169
2010-06-22 11:35:44 51°20.925 2°36.726 14.8308 3.923582 31.646767 0.566514
2010-06-22 11:36:44 51°20.936 2°37.095 14.8496 3.922316 31.622534 0.601338
2010-06-22 11:37:44 51°20.955 2°37.466 14.8866 3.92105 31.590378 0.53169
2010-06-22 11:38:44 51°20.99 2°37.835 14.9259 3.922421 31.575814 0.427218
2010-06-22 11:39:44 51°21.026 2°38.203 14.9467 3.925058 31.568354 0.496866
2010-06-22 11:40:44 51°21.059 2°38.571 14.9651 3.926218 31.556216 0.496866
2010-06-22 11:41:44 51°21.078 2°38.939 14.9801 3.924424 31.534082 0.566514
2010-06-22 11:42:44 51°21.094 2°39.263 15.0706 3.923369 31.504598 0.53169
2010-06-22 11:43:44 51°21.111 2°39.44 15.0844 3.9259 31.46784 0.601338
2010-06-22 11:44:44 51°21.15 2°39.533 15.098 3.926111 31.451587 0.636162
2010-06-22 11:45:44 51°21.252 2°39.557 15.0729 3.925372 31.440771 0.914755
2010-06-22 11:46:44 51°21.466 2°39.574 15.115 3.924212 31.438873 0.845107
2010-06-22 11:47:44 51°21.693 2°39.663 15.1144 3.929802 31.439844 0.496866
2010-06-22 11:48:44 51°21.92 2°39.76 15.088 3.934127 31.509209 0.322746
2010-06-22 11:49:44 51°22.146 2°39.86 15.2957 3.939507 31.559635 0.218274
2010-06-22 11:50:44 51°22.365 2°39.99 15.2014 3.95923 31.5354 0.113802
2010-06-22 11:51:44 51°22.566 2°40.185 15.0388 3.950055 31.584057 0.148626
2010-06-22 11:52:44 51°22.755 2°40.414 15.0297 3.936765 31.555157 0.218274
2010-06-22 11:53:44 51°22.943 2°40.639 14.9424 3.934656 31.57455 0.253098
2010-06-22 11:54:44 51°23.098 2°40.921 14.9212 3.930648 31.587356 0.253098
2010-06-22 11:55:44 51°23.219 2°41.246 14.9151 3.929804 31.606004 0.253098
2010-06-22 11:56:44 51°23.364 2°41.546 14.9013 3.929383 31.607103 0.218274
2010-06-22 11:57:44 51°23.512 2°41.842 14.8867 3.930754 31.636489 0.322746
2010-06-22 11:58:44 51°23.659 2°42.138 14.8916 3.93202 31.663739 0.218274
2010-06-22 11:59:44 51°23.808 2°42.434 14.8935 3.932126 31.65551 0.253098
2010-06-22 12:00:44 51°23.957 2°42.728 14.956 3.934446 31.670205 0.148626
2010-06-22 12:01:44 51°24.107 2°43.021 14.927 3.939087 31.667186 0.113802
2010-06-22 12:02:44 51°24.272 2°43.287 14.9317 3.944995 31.745198 0.009329
2010-06-22 12:03:43 51°24.412 2°43.576 14.8724 3.952273 31.805553 0.009329
2010-06-22 12:04:44 51°24.529 2°43.905 14.7815 3.955439 31.900432 0.009329
2010-06-22 12:05:43 51°24.644 2°44.217 14.7188 3.95333 31.931516 0.009329
2010-06-22 12:06:44 51°24.756 2°44.544 14.7161 3.949006 31.945226 0.044153
2010-06-22 12:07:44 51°24.87 2°44.864 14.7511 3.946896 31.92931 0.078977
2010-06-22 12:08:44 51°24.983 2°45.183 14.7255 3.94679 31.899245 0.009329
2010-06-22 12:09:44 51°25.098 2°45.503 14.7344 3.943309 31.885836 0.113802
2010-06-22 12:10:44 51°25.214 2°45.82 14.7365 3.941094 31.872685 0.218274
2010-06-22 12:11:44 51°25.329 2°46.138 14.7643 3.941199 31.850136 0.18345
2010-06-22 12:12:44 51°25.444 2°46.457 14.7406 3.940777 31.845102 0.148626
2010-06-22 12:13:44 51°25.55 2°46.784 14.7562 3.938351 31.826345 0.148626
2010-06-22 12:14:44 51°25.664 2°47.105 14.7986 3.938562 31.817134 0.148626
2010-06-22 12:15:44 51°25.788 2°47.415 14.8033 3.941093 31.810928 0.113802
2010-06-22 12:16:43 51°25.903 2°47.703 14.8214 3.941937 31.816668 0.113802
2010-06-22 12:17:44 51°25.963 2°47.946 14.8372 3.94373 31.815539 0.148626
2010-06-22 12:18:44 51°25.975 2°48.151 14.8466 3.945523 31.815645 0.148626
2010-06-22 12:19:44 51°25.946 2°48.334 14.8861 3.945734 31.818156 0.18345
2010-06-22 12:20:44 51°25.937 2°48.477 14.9843 3.949109 31.790676 0.078977
2010-06-22 12:21:44 51°25.954 2°48.561 15.08 3.955754 31.789537 0.078977
2010-06-22 12:22:44 51°25.97 2°48.59 15.0601 3.961555 31.773563 0.113802
2010-06-22 12:23:44 51°25.983 2°48.599 15.0525 3.9605 31.780625 0.218274
2010-06-22 12:24:44 51°25.995 2°48.604 15.0228 3.95934 31.778805 0.462042
2010-06-22 12:25:44 51°26.005 2°48.607 15.0369 3.957652 31.774101 0.740634
2010-06-22 12:26:44 51°26.011 2°48.608 15.0171 3.958285 31.773038 0.914755
2010-06-22 12:27:44 51°26.015 2°48.611 14.9672 3.956176 31.777399 1.123699
2010-06-22 12:28:44 51°26.016 2°48.618 14.8975 3.952062 31.781583 1.228171
2010-06-22 12:29:44 51°26.018 2°48.628 14.8977 3.946366 31.778962 1.297819
2010-06-22 12:30:44 51°26.027 2°48.623 14.8856 3.945733 31.770215 1.193347
2010-06-22 12:31:44 51°26.075 2°48.605 14.8684 3.941198 31.739335 1.158523
2010-06-22 12:32:44 51°26.128 2°48.677 14.9766 3.943624 31.773997 0.636162
2010-06-22 12:33:44 51°26.185 2°48.815 14.9522 3.952062 31.769944 0.253098
2010-06-22 12:34:44 51°26.253 2°49.053 14.9228 3.951429 31.769786 0.218274
2010-06-22 12:35:44 51°26.304 2°49.374 14.8569 3.946472 31.770704 0.18345
2010-06-22 12:36:44 51°26.36 2°49.716 14.8515 3.939932 31.743925 0.18345
2010-06-22 12:37:44 51°26.415 2°50.064 14.8342 3.938244 31.742276 0.113802
2010-06-22 12:38:44 51°26.448 2°50.418 14.8201 3.935924 31.736171 0.113802
2010-06-22 12:39:44 51°26.469 2°50.776 14.8311 3.934869 31.735293 0.009329
2010-06-22 12:40:44 51°26.491 2°51.134 14.8497 3.935818 31.732767 0.009329
2010-06-22 12:41:44 51°26.514 2°51.493 14.8496 3.936029 31.737732 -0.095143
2010-06-22 12:42:44 51°26.537 2°51.851 14.8781 3.937717 31.74061 -0.095143
2010-06-22 12:43:44 51°26.56 2°52.205 15.0045 3.940354 31.735443 -0.095143
2010-06-22 12:44:44 51°26.584 2°52.555 14.8558 3.949847 31.759897 -0.060319
2010-06-22 12:45:44 51°26.607 2°52.907 14.8828 3.940565 31.75329 -0.060319
2010-06-22 12:46:44 51°26.632 2°53.26 14.9606 3.94183 31.737656 -0.060319
2010-06-22 12:47:44 51°26.656 2°53.615 14.9649 3.945627 31.724545 -0.060319
2010-06-22 12:48:44 51°26.68 2°53.969 15.0106 3.945416 31.715316 -0.095143
2010-06-22 12:49:44 51°26.721 2°54.321 14.9777 3.946892 31.694942 -0.060319
2010-06-22 12:50:44 51°26.774 2°54.67 14.9975 3.943201 31.685095 0.009329
2010-06-22 12:51:44 51°26.826 2°55.019 15.0444 3.943939 31.678887 -0.025495
2010-06-22 12:52:44 51°26.878 2°55.365 15.0558 3.951005 31.659231 -0.095143
2010-06-22 12:53:44 51°26.93 2°55.71 14.9159 3.94647 31.681408 -0.199615
2010-06-22 12:54:44 51°26.982 2°56.056 14.9087 3.932442 31.63879 -0.164791
2010-06-22 12:55:44 51°27.034 2°56.403 15.1104 3.930965 31.621282 -0.164791
2010-06-22 12:56:44 51°27.088 2°56.746 15.1041 3.948157 31.60771 -0.269263
2010-06-22 12:57:43 51°27.141 2°57.084 14.9995 3.946891 31.632832 -0.269263
2010-06-22 12:58:44 51°27.195 2°57.434 14.998 3.935289 31.584463 -0.234439
2010-06-22 12:59:43 51°27.249 2°57.773 14.9158 3.932019 31.579542 -0.164791
2010-06-22 13:00:44 51°27.303 2°58.123 14.8885 3.923581 31.553298 -0.129967
2010-06-22 13:01:43 51°27.358 2°58.46 14.8548 3.918202 31.533109 -0.129967
2010-06-22 13:02:44 51°27.415 2°58.809 14.8093 3.912506 31.520422 -0.060319
2010-06-22 13:03:44 51°27.477 2°59.149 14.929 3.909974 31.491615 -0.129967
2010-06-22 13:04:44 51°27.541 2°59.489 14.8591 3.912083 31.447901 -0.164791
2010-06-22 13:05:44 51°27.605 2°59.829 14.8183 3.899004 31.390198 -0.025495
2010-06-22 13:06:44 51°27.667 3°0.17 14.8094 3.895417 31.347743 -0.095143
2010-06-22 13:07:44 51°27.726 3°0.514 14.8796 3.892148 31.35724 0.009329
2010-06-22 13:08:44 51°27.786 3°0.858 14.9571 3.89605 31.332218 -0.060319
2010-06-22 13:09:44 51°27.845 3°1.203 14.8405 3.900902 31.344194 -0.025495
2010-06-22 13:10:44 51°27.903 3°1.55 15.0109 3.891831 31.33075 -0.025495
2010-06-22 13:11:44 51°27.962 3°1.896 15.1698 3.909127 31.29109 -0.199615
2010-06-22 13:12:44 51°28.029 3°2.238 15.0955 3.920519 31.335509 -0.199615
2010-06-22 13:13:44 51°28.094 3°2.582 15.0573 3.914718 31.357791 -0.060319
2010-06-22 13:14:44 51°28.161 3°2.919 14.9033 3.914929 31.357263 -0.095143
2010-06-22 13:15:44 51°28.218 3°3.207 14.8076 3.901219 31.383963 0.009329
2010-06-22 13:16:44 51°28.267 3°3.453 14.7977 3.891093 31.352633 -0.025495
2010-06-22 13:17:44 51°28.297 3°3.583 14.8159 3.888456 31.332615 -0.025495
2010-06-22 13:18:44 51°28.312 3°3.616 14.9929 3.890249 31.312933 -0.095143
2010-06-22 13:19:44 51°28.323 3°3.631 15.0406 3.903116 31.307247 -0.129967
2010-06-22 13:20:44 51°28.333 3°3.643 14.9614 3.906069 31.313737 0.148626
2010-06-22 13:21:44 51°28.343 3°3.652 14.8954 3.90069 31.321158 0.35757
2010-06-22 13:22:44 51°28.352 3°3.66 14.8807 3.895628 31.327229 0.53169
2010-06-22 13:23:44 51°28.36 3°3.667 14.9317 3.894151 31.314611 0.53169
2010-06-22 13:24:44 51°28.368 3°3.675 14.9636 3.898264 31.313954 0.53169
2010-06-22 13:25:44 51°28.374 3°3.681 14.9656 3.900585 31.312971 0.601338
2010-06-22 13:26:44 51°28.379 3°3.687 14.9956 3.900901 31.31218 0.636162
2010-06-22 13:27:44 51°28.385 3°3.693 15.0686 3.903116 31.304837 0.566514
2010-06-22 13:28:43 51°28.389 3°3.698 15.1333 3.910077 31.309774 0.462042
2010-06-22 13:29:44 51°28.394 3°3.703 15.0685 3.914823 31.317818 0.462042
2010-06-22 13:30:43 51°28.398 3°3.708 15.0495 3.911343 31.324672 0.53169
2010-06-22 13:31:43 51°28.401 3°3.711 14.9958 3.908706 31.324625 0.566514
2010-06-22 13:32:44 51°28.405 3°3.714 14.9903 3.905226 31.328504 0.601338
2010-06-22 13:33:43 51°28.407 3°3.712 14.9646 3.903644 31.325226 0.601338
2010-06-22 13:34:44 51°28.408 3°3.705 14.9607 3.902167 31.324701 0.670986
2010-06-22 13:35:44 51°28.41 3°3.696 14.8806 3.901007 31.324591 0.670986
2010-06-22 13:36:44 51°28.412 3°3.683 14.8071 3.894784 31.333593 0.775459
2010-06-22 13:37:44 51°28.415 3°3.668 14.7021 3.888773 31.339095 0.914755
2010-06-22 13:38:44 51°28.404 3°3.695 14.6552 3.880968 31.345568 1.019227
2010-06-22 13:39:44 51°28.347 3°3.83 14.8012 3.877383 31.34315 0.984403
2010-06-22 13:40:44 51°28.249 3°4.092 14.9394 3.886663 31.301981 0.218274
2010-06-22 13:41:44 51°28.142 3°4.393 14.9425 3.892674 31.265161 -0.060319
2010-06-22 13:42:44 51°28.028 3°4.686 14.9102 3.891619 31.255728 -0.060319
2010-06-22 13:43:44 51°27.91 3°4.968 14.8331 3.888455 31.257578 -0.025495
2010-06-22 13:44:44 51°27.792 3°5.25 14.9353 3.882232 31.227814 0.009329
2010-06-22 13:45:44 51°27.675 3°5.534 14.9598 3.886451 31.225774 0.078977
2010-06-22 13:46:43 51°27.56 3°5.815 15.0458 3.889931 31.21896 0.044153
2010-06-22 13:47:44 51°27.442 3°6.104 14.971 3.896154 31.221635 0.044153
2010-06-22 13:48:43 51°27.327 3°6.382 15.1714 3.89204 31.217358 0.078977
2010-06-22 13:49:44 51°27.21 3°6.669 15.1764 3.906699 31.151073 0.044153
2010-06-22 13:50:44 51°27.094 3°6.949 15.1071 3.902798 31.19336 0.113802
2010-06-22 13:51:44 51°26.977 3°7.23 15.1375 3.894359 31.13857 0.113802
2010-06-22 13:52:44 51°26.862 3°7.508 15.0043 3.892039 31.115525 0.253098
2010-06-22 13:53:44 51°26.744 3°7.784 14.99 3.882125 31.116246 0.392394
2010-06-22 13:55:00 51°26.603 3°8.119 14.8956 3.875586 31.095008 0.670986
2010-06-22 13:57:05 51°26.435 3°8.275 14.8585 3.8643 31.051087 0.879931
2010-06-22 13:58:05 51°26.41 3°8.244 14.8846 3.862086 31.039669 0.810283
2010-06-22 13:59:05 51°26.413 3°8.229 14.8764 3.863035 31.025985 0.70581
2010-06-22 14:00:07 51°26.417 3°8.215 14.8658 3.861875 31.031188 1.088875
2010-06-22 14:01:06 51°26.421 3°8.202 14.8596 3.861136 31.032377 1.367467
2010-06-22 14:02:05 51°26.423 3°8.189 14.8533 3.860504 31.03391 1.506764
2010-06-22 14:03:05 51°26.425 3°8.175 14.8546 3.859765 31.035101 1.576412
2010-06-22 14:04:05 51°26.427 3°8.159 14.8519 3.859765 31.032102 1.576412
2010-06-22 14:05:05 51°26.428 3°8.143 14.8682 3.860293 31.035022 1.611236
2010-06-22 14:06:05 51°26.429 3°8.126 14.8801 3.861031 31.030234 1.611236
2010-06-22 14:07:05 51°26.429 3°8.108 14.8886 3.861558 31.029556 1.611236
2010-06-22 14:08:05 51°26.429 3°8.09 14.8997 3.862929 31.026838 1.541588
2010-06-22 14:09:05 51°26.43 3°8.07 14.9415 3.864089 31.027628 1.506764
2010-06-22 14:10:05 51°26.429 3°8.05 14.9305 3.865249 31.02722 1.506764
2010-06-22 14:11:05 51°26.429 3°8.028 14.9304 3.866198 31.026127 1.402292
2010-06-22 14:12:05 51°26.429 3°8.007 14.9379 3.865671 31.022612 1.47194
2010-06-22 14:13:05 51°26.429 3°7.985 14.9173 3.866515 31.023569 1.437116
2010-06-22 14:14:05 51°26.428 3°7.963 14.9179 3.864722 31.022508 1.47194
2010-06-22 14:15:05 51°26.428 3°7.94 14.9086 3.864089 31.022838 1.47194
2010-06-22 14:16:05 51°26.427 3°7.89 14.9162 3.864089 31.022838 1.506764
2010-06-22 14:17:06 51°26.357 3°7.768 14.9011 3.8643 31.019337 1.47194
2010-06-22 14:18:05 51°26.19 3°7.613 14.8965 3.862718 31.02076 1.019227
2010-06-22 14:19:05 51°25.994 3°7.491 14.8993 3.859132 31.010255 1.228171
2010-06-22 14:20:05 51°25.788 3°7.355 14.8771 3.859132 30.990501 1.47194
2010-06-22 14:21:05 51°25.58 3°7.217 14.9001 3.855546 30.981176 1.437116
2010-06-22 14:22:05 51°25.365 3°7.123 14.9557 3.855757 30.956152 1.367467
2010-06-22 14:23:05 51°25.152 3°7.152 15.0007 3.857338 30.939242 1.228171
2010-06-22 14:24:05 51°24.957 3°7.278 14.9884 3.859236 30.91448 1.437116
2010-06-22 14:25:05 51°24.8 3°7.492 15.0708 3.855545 30.898221 1.506764
2010-06-22 14:26:05 51°24.699 3°7.768 15.2307 3.861239 30.847468 1.054051
2010-06-22 14:27:05 51°24.603 3°8.047 15.0774 3.870731 30.86558 1.123699
2010-06-22 14:28:05 51°24.496 3°8.318 15.092 3.860606 30.872049 1.262995
2010-06-22 14:29:05 51°24.387 3°8.586 15.1241 3.859762 30.829607 0.984403
2010-06-22 14:30:05 51°24.277 3°8.854 15.0698 3.856598 30.797935 1.054051
2010-06-22 14:31:05 51°24.164 3°9.117 15.1783 3.847633 30.747166 0.845107
2010-06-22 14:32:05 51°24.056 3°9.382 15.4716 3.857651 30.731297 0.601338
2010-06-22 14:33:05 51°23.944 3°9.646 15.2904 3.882119 30.771307 0.392394
2010-06-22 14:34:05 51°23.83 3°9.907 15.6889 3.872628 30.771757 0.218274
2010-06-22 14:35:05 51°23.711 3°10.159 15.7599 3.901842 30.7771 0.078977
2010-06-22 14:36:05 51°23.576 3°10.401 15.5505 3.912389 30.779714 0.218274
2010-06-22 14:37:05 51°23.44 3°10.646 15.1779 3.893405 30.837519 1.228171
2010-06-22 14:38:05 51°23.304 3°10.892 15.1134 3.865773 30.826894 1.785356
2010-06-22 14:39:05 51°23.169 3°11.138 15.1231 3.854277 30.774362 1.889828
2010-06-22 14:40:05 51°23.049 3°11.399 15.1847 3.848159 30.705292 1.785356
2010-06-22 14:41:05 51°22.932 3°11.662 15.2259 3.845311 30.645947 1.889828
2010-06-22 14:42:05 51°22.849 3°11.924 15.2824 3.844361 30.591867 1.785356
2010-06-22 14:43:05 51°22.778 3°12.184 15.3318 3.841091 30.533171 1.924652
2010-06-22 14:44:05 51°22.707 3°12.446 15.3223 3.838453 30.484257 2.098773
2010-06-22 14:45:05 51°22.641 3°12.706 15.4018 3.836238 30.450175 2.272893
2010-06-22 14:46:05 51°22.632 3°12.979 15.4706 3.838452 30.41238 2.063949
2010-06-22 14:47:05 51°22.619 3°13.199 15.4723 3.841932 30.396262 2.133597
2010-06-22 14:48:05 51°22.615 3°13.299 15.5251 3.837608 30.366845 2.342541
2010-06-22 14:49:05 51°22.603 3°13.297 15.5715 3.838662 30.324332 1.889828
2010-06-22 14:50:05 51°22.589 3°13.269 15.5833 3.839716 30.303751 1.889828
2010-06-22 14:51:05 51°22.578 3°13.236 15.6165 3.84056 30.30084 1.889828
2010-06-22 14:52:05 51°22.568 3°13.2 15.6141 3.842563 30.297227 1.855004
2010-06-22 14:53:05 51°22.559 3°13.162 15.5741 3.842458 30.305466 2.029124
2010-06-22 14:54:05 51°22.541 3°13.13 15.5389 3.840665 30.312086 2.203245
2010-06-22 14:55:05 51°22.494 3°13.047 15.6281 3.839716 30.306045 2.203245
2010-06-22 14:56:05 51°22.508 3°12.891 15.6588 3.84868 30.32167 1.82018
2010-06-22 14:57:05 51°22.552 3°12.738 15.6016 3.853216 30.359135 1.750532
2010-06-22 14:58:05 51°22.598 3°12.58 15.5525 3.849103 30.371818 2.133597
2010-06-22 14:59:05 51°22.628 3°12.403 15.5516 3.842986 30.357163 2.272893
2010-06-22 15:00:05 51°22.63 3°12.225 15.5222 3.84383 30.354805 1.82018
2010-06-22 15:01:05 51°22.637 3°12.075 15.4734 3.841826 30.3671 2.098773
2010-06-22 15:02:05 51°22.63 3°11.984 15.4904 3.839084 30.374655 2.168421
2010-06-22 15:03:09 51°22.637 3°11.975 15.4533 3.841194 30.379387 2.098773
2010-06-22 15:04:07 51°22.642 3°11.963 15.4374 3.839823 30.396731 2.342541
2010-06-22 15:05:05 51°22.646 3°11.945 15.4301 3.839718 30.402731 2.377365
2010-06-22 15:06:05 51°22.648 3°11.923 15.421 3.839085 30.40582 2.377365
2010-06-22 15:07:05 51°22.649 3°11.898 15.4284 3.841933 30.425711 2.481837
2010-06-22 15:08:05 51°22.649 3°11.868 15.3992 3.842144 30.431617 2.481837
2010-06-22 15:09:05 51°22.647 3°11.837 15.4219 3.841616 30.435066 2.481837
2010-06-22 15:10:05 51°22.646 3°11.805 15.4494 3.842249 30.433124 2.447013
2010-06-22 15:11:05 51°22.642 3°11.772 15.4493 3.844147 30.427886 2.412189
2010-06-22 15:12:05 51°22.635 3°11.735 15.526 3.845518 30.426098 2.342541
2010-06-22 15:13:05 51°22.616 3°11.678 15.6336 3.850685 30.404109 2.098773
2010-06-22 15:14:05 51°22.585 3°11.574 15.5423 3.85638 30.388597 1.750532
2010-06-22 15:15:05 51°22.541 3°11.441 15.464 3.849631 30.415568 2.272893
2010-06-22 15:16:05 51°22.523 3°11.379 15.4735 3.844041 30.399256 1.924652
2010-06-22 15:17:08 51°22.52 3°11.34 15.3781 3.843725 30.4132 2.412189
2010-06-22 15:18:09 51°22.514 3°11.301 15.381 3.837292 30.420082 2.586309
2010-06-22 15:19:06 51°22.506 3°11.263 15.3807 3.837081 30.417064 2.621133
2010-06-22 15:20:05 51°22.499 3°11.226 15.3342 3.83666 30.433028 2.93455
2010-06-22 15:21:05 51°22.489 3°11.187 15.3561 3.834445 30.433762 2.969374
2010-06-22 15:22:05 51°22.452 3°11.057 15.4979 3.836976 30.414977 2.621133
2010-06-22 15:23:05 51°22.438 3°10.743 15.3991 3.844252 30.407456 2.203245
2010-06-22 15:24:05 51°22.42 3°10.369 15.4169 3.841194 30.42094 2.203245
2010-06-22 15:25:05 51°22.373 3°9.993 15.3233 3.840562 30.422878 2.168421
2010-06-22 15:26:05 51°22.323 3°9.614 15.2653 3.836238 30.455978 2.203245
2010-06-22 15:27:05 51°22.275 3°9.231 15.263 3.832969 30.443346 2.168421
2010-06-22 15:28:05 51°22.224 3°8.848 15.1961 3.832653 30.475422 2.238069
2010-06-22 15:29:05 51°22.166 3°8.47 15.1294 3.829279 30.489818 2.203245
2010-06-22 15:30:05 51°22.099 3°8.094 15.1245 3.825377 30.497841 2.307717
2010-06-22 15:31:05 51°22.033 3°7.72 15.2228 3.821896 30.469892 2.342541
2010-06-22 15:32:05 51°21.968 3°7.344 15.409 3.826325 30.422932 2.063949
2010-06-22 15:33:05 51°21.903 3°6.967 15.5796 3.838241 30.381644 1.855004
2010-06-22 15:34:05 51°21.837 3°6.588 15.4401 3.84847 30.372581 1.715708
2010-06-22 15:35:05 51°21.77 3°6.21 15.429 3.838135 30.389372 1.959476
2010-06-22 15:36:05 51°21.702 3°5.835 15.5581 3.836448 30.354327 1.9943
2010-06-22 15:37:05 51°21.634 3°5.46 15.4923 3.842458 30.308905 2.133597
2010-06-22 15:38:05 51°21.565 3°5.086 15.3457 3.823263 30.23946 2.307717
2010-06-22 15:39:05 51°21.496 3°4.714 15.3679 3.809659 30.190288 2.377365
2010-06-22 15:40:05 51°21.428 3°4.343 15.3992 3.809764 30.17686 2.342541
2010-06-22 15:41:05 51°21.361 3°3.972 15.4307 3.811662 30.181529 2.238069
2010-06-22 15:42:05 51°21.296 3°3.601 15.4489 3.814615 30.181718 2.238069
2010-06-22 15:43:05 51°21.226 3°3.231 15.4554 3.815986 30.179454 2.168421
2010-06-22 15:44:05 51°21.136 3°2.87 15.4997 3.817568 30.18134 2.063949
2010-06-22 15:45:05 51°21.054 3°2.506 15.5872 3.822524 30.189422 1.959476
2010-06-22 15:46:05 51°21.039 3°2.124 15.614 3.830328 30.193358 1.889828
2010-06-22 15:47:05 51°21.03 3°1.742 15.5331 3.832754 30.206637 1.855004
2010-06-22 15:48:05 51°20.982 3°1.367 15.5442 3.827587 30.211003 1.785356
2010-06-22 15:49:05 51°20.909 3°1 15.54 3.828325 30.21005 1.82018
2010-06-22 15:50:05 51°20.835 3°0.631 15.5464 3.828747 30.220617 1.82018
2010-06-22 15:51:05 51°20.761 3°0.262 15.5953 3.831278 30.232541 1.855004
2010-06-22 15:52:05 51°20.656 2°59.911 15.6058 3.836235 30.238867 1.855004
2010-06-22 15:53:05 51°20.547 2°59.562 15.6331 3.841087 30.276265 1.855004
2010-06-22 15:54:05 51°20.438 2°59.212 15.6246 3.846044 30.305424 1.924652
2010-06-22 15:55:05 51°20.341 2°58.855 15.6412 3.852794 30.370917 1.9943
2010-06-22 15:56:05 51°20.243 2°58.498 15.6171 3.860177 30.41041 1.9943
2010-06-22 15:57:05 51°20.146 2°58.143 15.7368 3.869882 30.5266 2.203245
2010-06-22 15:58:05 51°20.049 2°57.787 15.9537 3.880322 30.478404 1.9943
2010-06-22 15:59:05 51°19.951 2°57.429 16.4771 3.894454 30.450974 1.47194
2010-06-22 16:00:05 51°19.854 2°57.071 16.4083 3.951936 30.53466 1.402292
2010-06-22 16:01:05 51°19.757 2°56.715 15.911 3.940972 30.821621 2.168421
2010-06-22 16:02:05 51°19.659 2°56.36 16.0753 3.917976 30.655202 1.785356
2010-06-22 16:03:05 51°19.561 2°56.007 15.8056 3.92515 30.779244 2.342541
2010-06-22 16:04:05 51°19.471 2°55.648 15.807 3.918927 30.734124 2.203245
2010-06-22 16:05:05 51°19.38 2°55.291 15.792 3.913233 30.798692 2.551485
2010-06-22 16:06:05 51°19.289 2°54.934 15.7405 3.917978 30.756381 2.447013
2010-06-22 16:07:05 51°19.197 2°54.579 15.8393 3.912389 30.802312 2.655957
2010-06-22 16:08:05 51°19.105 2°54.222 15.7407 3.919244 30.797489 2.690782
2010-06-22 16:09:05 51°19.013 2°53.865 15.6652 3.913655 30.81805 2.830078
2010-06-22 16:10:05 51°18.921 2°53.509 15.5809 3.90701 30.819 2.864902
2010-06-22 16:11:05 51°18.83 2°53.154 15.708 3.901315 30.814934 2.93455
2010-06-22 16:12:05 51°18.743 2°52.794 15.9797 3.910912 30.791108 2.93455
2010-06-22 16:13:05 51°18.658 2°52.431 16.3266 3.933905 30.785361 3.073846
2010-06-22 16:14:05 51°18.627 2°52.06 15.7949 3.957637 30.819053 3.178318
2010-06-22 16:15:05 51°18.638 2°51.684 16.0815 3.922303 30.817308 3.28279
2010-06-22 16:16:05 51°18.65 2°51.305 15.921 3.941604 30.784622 2.93455
2010-06-22 16:17:05 51°18.625 2°51.037 17.0131 3.929687 30.8356 3.213142
2010-06-22 16:18:05 51°18.547 2°50.959 16.979 4.021661 30.783551 1.750532
2010-06-22 16:19:05 51°18.489 2°50.939 16.6893 4.022401 30.874477 2.447013
2010-06-22 16:20:05 51°18.459 2°50.917 16.0799 3.997719 30.897074 2.969374
2010-06-22 16:21:05 51°18.435 2°50.891 15.9988 3.950043 30.854578 3.213142
2010-06-22 16:22:05 51°18.412 2°50.865 15.7397 3.93591 30.875517 3.317614
2010-06-22 16:23:05 51°18.389 2°50.838 15.6952 3.914077 30.844402 3.352439
2010-06-22 16:24:05 51°18.366 2°50.811 15.6803 3.911229 30.829875 3.317614
2010-06-22 16:25:05 51°18.344 2°50.784 15.6871 3.910596 30.828971 3.28279
2010-06-22 16:26:05 51°18.309 2°50.769 16.2939 3.911862 30.828454 3.247966
2010-06-22 16:27:05 51°18.213 2°50.847 16.7188 3.966496 30.783401 2.586309
2010-06-22 16:28:05 51°18.073 2°51.043 16.0609 3.996346 30.804926 2.377365
2010-06-22 16:29:05 51°17.918 2°51.287 15.8492 3.943292 30.836653 2.93455
2010-06-22 16:30:05 51°17.76 2°51.53 16.0071 3.923885 30.77684 2.93455
2010-06-22 16:31:05 51°17.598 2°51.771 16.0185 3.930424 30.753307 2.864902
2010-06-22 16:32:05 51°17.436 2°52.017 15.9621 3.934958 30.716532 2.655957
2010-06-22 16:33:05 51°17.273 2°52.266 15.7016 3.922935 30.750689 2.621133
2010-06-22 16:34:05 51°17.113 2°52.51 15.5951 3.897622 30.716286 2.586309
2010-06-22 16:35:05 51°16.94 2°52.738 15.5711 3.88486 30.657542 2.481837
2010-06-22 16:36:05 51°16.809 2°52.925 15.58 3.877371 30.62244 2.447013
2010-06-22 16:37:05 51°16.753 2°53.026 15.6395 3.879586 30.619901 2.133597
2010-06-22 16:38:05 51°16.722 2°53.111 15.6649 3.883594 30.625594 2.098773
2010-06-22 16:39:05 51°16.674 2°53.283 15.6778 3.886441 30.632664 2.063949
2010-06-22 16:40:05 51°16.591 2°53.532 15.7942 3.889289 30.625873 1.959476
2010-06-22 16:41:05 51°16.495 2°53.816 15.7788 3.898042 30.627604 1.855004
2010-06-22 16:42:05 51°16.373 2°54.073 15.9739 3.900574 30.627303 1.715708
2010-06-22 16:43:05 51°16.309 2°54.269 15.8575 3.907851 30.640885 1.785356
2010-06-22 16:44:05 51°16.301 2°54.369 15.7477 3.901206 30.624211 1.576412
2010-06-22 16:45:05 51°16.281 2°54.373 15.7191 3.89298 30.629952 1.82018
2010-06-22 16:46:05 51°16.263 2°54.347 15.6957 3.890027 30.622535 1.889828
2010-06-22 16:47:05 51°16.246 2°54.32 15.6752 3.888129 30.627824 2.029124
2010-06-22 16:48:05 51°16.228 2°54.292 15.6754 3.886758 30.626195 1.9943
2010-06-22 16:49:05 51°16.198 2°54.261 15.6865 3.886758 30.626773 1.924652
2010-06-22 16:50:05 51°16.067 2°54.243 15.7318 3.887601 30.622046 1.889828
2010-06-22 16:51:05 51°15.856 2°54.267 15.7064 3.886652 30.592962 2.029124
2010-06-22 16:52:05 51°15.631 2°54.307 15.7463 3.883593 30.577685 1.9943
2010-06-22 16:53:05 51°15.407 2°54.353 15.7173 3.876209 30.500349 2.133597
2010-06-22 16:54:05 51°15.184 2°54.41 15.7892 3.864079 30.399309 2.133597
2010-06-22 16:55:05 51°14.97 2°54.519 15.7849 3.861547 30.344572 2.168421
2010-06-22 16:56:06 51°14.771 2°54.694 15.8258 3.861336 30.327323 2.238069
2010-06-22 16:57:05 51°14.591 2°54.879 15.9028 3.860386 30.296813 2.098773
2010-06-22 16:58:05 51°14.421 2°55.088 16.2198 3.867452 30.273813 1.924652
2010-06-22 16:59:07 51°14.249 2°55.287 16.0786 3.854053 29.983242 1.750532
2010-06-22 17:00:06 51°14.12 2°55.406 16.3916 0.163948 1.00643 -0.896096
2010-06-22 17:01:05 51°13.996 2°55.496 16.4959 0.174155 1.072246 -0.896096
2010-06-22 17:02:05 51°13.886 2°55.58 16.538 0.162178 0.994935 -0.896096
2010-06-22 17:03:05 51°13.784 2°55.673 16.6041 0.158637 0.971853 -0.896096
2010-06-22 17:04:05 51°13.715 2°55.788 16.6496 0.156242 0.956222 -0.896096
2010-06-22 17:05:05 51°13.673 2°55.899 16.7568 0.151868 0.927698 -0.896096
2010-06-22 17:06:05 51°13.663 2°55.957 16.8639 0.149785 0.913767 -0.896096